createdAt,value
2024-02-08T00:01:34.266Z,7.88
2024-02-08T00:04:00.684Z,7.85
2024-02-08T00:06:27.243Z,7.77
2024-02-08T00:08:54.742Z,8.06
2024-02-08T00:11:21.562Z,7.91
2024-02-08T00:13:48.929Z,8.04
2024-02-08T00:16:15.299Z,8.15
2024-02-08T00:18:41.802Z,8.58
2024-02-08T00:21:10.314Z,8.44
2024-02-08T00:23:37.939Z,8.47
2024-02-08T00:26:04.473Z,9.32
2024-02-08T00:28:30.915Z,9.61
2024-02-08T00:30:57.600Z,9.84
2024-02-08T00:33:26.558Z,9.74
2024-02-08T00:35:53.262Z,9.73
2024-02-08T00:38:19.714Z,9.87
2024-02-08T00:40:47.447Z,9.43
2024-02-08T00:43:13.892Z,8.88
2024-02-08T00:45:40.282Z,8.94
2024-02-08T00:48:07.086Z,8.64
2024-02-08T00:50:33.466Z,8.60
2024-02-08T00:53:01.636Z,8.60
2024-02-08T00:55:30.265Z,8.66
2024-02-08T00:57:56.756Z,8.90
2024-02-08T01:00:23.241Z,9.45
2024-02-08T01:02:49.570Z,9.61
2024-02-08T01:05:16.197Z,9.43
2024-02-08T01:07:42.733Z,9.46
2024-02-08T01:10:09.140Z,9.52
2024-02-08T01:12:35.562Z,8.99
2024-02-08T01:15:03.409Z,8.94
2024-02-08T01:17:29.836Z,9.15
2024-02-08T01:20:00.349Z,9.51
2024-02-08T01:22:27.072Z,9.51
2024-02-08T01:24:53.522Z,9.61
2024-02-08T01:27:22.138Z,9.06
2024-02-08T01:29:50.320Z,8.59
2024-02-08T01:32:16.866Z,8.99
2024-02-08T01:34:45.948Z,8.58
2024-02-08T01:37:14.259Z,8.25
2024-02-08T01:39:40.997Z,8.16
2024-02-08T01:42:14.152Z,8.10
2024-02-08T01:44:49.547Z,8.16
2024-02-08T01:47:18.554Z,8.81
2024-02-08T01:49:47.469Z,9.50
2024-02-08T01:52:19.647Z,9.78
2024-02-08T01:54:48.146Z,8.97
2024-02-08T01:57:14.489Z,9.41
2024-02-08T01:59:41.520Z,9.38
2024-02-08T02:02:08.879Z,9.47
2024-02-08T02:04:35.684Z,9.30
2024-02-08T02:07:03.454Z,9.61
2024-02-08T02:09:31.588Z,9.69
2024-02-08T02:11:59.246Z,9.49
2024-02-08T02:14:30.405Z,9.60
2024-02-08T02:17:09.772Z,9.51
2024-02-08T02:19:36.243Z,9.58
2024-02-08T02:22:02.673Z,9.42
2024-02-08T02:24:30.585Z,8.70
2024-02-08T02:26:58.652Z,8.01
2024-02-08T02:29:25.848Z,8.04
2024-02-08T02:31:52.232Z,8.46
2024-02-08T02:34:18.750Z,9.14
2024-02-08T02:36:46.005Z,8.99
2024-02-08T02:39:13.877Z,9.00
2024-02-08T02:41:41.428Z,9.52
2024-02-08T02:44:09.685Z,9.44
2024-02-08T02:46:39.045Z,9.53
2024-02-08T02:49:05.516Z,9.38
2024-02-08T02:51:32.257Z,9.26
2024-02-08T02:53:59.166Z,8.71
2024-02-08T02:56:25.548Z,9.43
2024-02-08T02:58:53.082Z,9.36
2024-02-08T03:01:20.388Z,9.19
2024-02-08T03:03:48.494Z,9.26
2024-02-08T03:06:15.901Z,9.16
2024-02-08T03:08:44.105Z,9.22
2024-02-08T03:11:12.144Z,9.16
2024-02-08T03:13:39.560Z,9.45
2024-02-08T03:16:07.065Z,9.54
2024-02-08T03:18:33.626Z,9.47
2024-02-08T03:21:02.278Z,9.10
2024-02-08T03:23:28.664Z,8.85
2024-02-08T03:25:57.748Z,9.34
2024-02-08T03:28:24.539Z,9.78
2024-02-08T03:30:53.649Z,9.72
2024-02-08T03:33:20.123Z,9.92
2024-02-08T03:35:54.534Z,9.34
2024-02-08T03:38:21.220Z,8.38
2024-02-08T03:40:47.615Z,8.26
2024-02-08T03:43:16.896Z,8.86
2024-02-08T03:45:44.626Z,9.57
2024-02-08T03:48:12.447Z,9.76
2024-02-08T03:50:40.432Z,9.68
2024-02-08T03:53:14.717Z,9.29
2024-02-08T03:55:45.091Z,9.83
2024-02-08T03:58:15.030Z,9.37
2024-02-08T04:00:47.406Z,8.57
2024-02-08T04:03:34.632Z,8.92
2024-02-08T04:06:04.942Z,9.53
2024-02-08T04:08:54.439Z,9.49
2024-02-08T04:11:39.318Z,9.66
2024-02-08T04:14:24.363Z,9.96
2024-02-08T04:17:09.350Z,10.03
2024-02-08T04:19:54.177Z,9.88
2024-02-08T04:22:39.411Z,9.76
2024-02-08T04:25:24.143Z,9.68
2024-02-08T04:28:09.033Z,9.89
2024-02-08T04:30:53.766Z,9.63
2024-02-08T04:33:38.953Z,9.70
2024-02-08T04:36:29.676Z,9.52
2024-02-08T04:39:14.465Z,9.32
2024-02-08T04:41:59.704Z,9.14
2024-02-08T04:44:44.566Z,8.89
2024-02-08T04:47:29.462Z,8.64
2024-02-08T04:50:14.461Z,8.74
2024-02-08T04:52:59.576Z,8.36
2024-02-08T04:55:26.012Z,7.79
2024-02-08T04:57:52.736Z,7.98
2024-02-08T05:00:19.853Z,8.31
2024-02-08T05:02:46.206Z,8.89
2024-02-08T05:05:12.889Z,8.36
2024-02-08T05:07:39.612Z,8.78
2024-02-08T05:10:06.365Z,9.05
2024-02-08T05:12:32.889Z,8.48
2024-02-08T05:14:59.358Z,8.12
2024-02-08T05:17:26.812Z,8.32
2024-02-08T05:19:53.253Z,9.58
2024-02-08T05:22:19.727Z,9.68
2024-02-08T05:24:47.344Z,9.63
2024-02-08T05:27:13.731Z,9.76
2024-02-08T05:29:42.452Z,9.46
2024-02-08T05:32:10.997Z,8.96
2024-02-08T05:34:38.096Z,8.65
2024-02-08T05:37:04.745Z,9.15
2024-02-08T05:39:31.198Z,8.58
2024-02-08T05:41:58.775Z,7.93
2024-02-08T05:44:30.683Z,7.50
2024-02-08T05:46:58.222Z,8.12
2024-02-08T05:49:27.379Z,9.20
2024-02-08T05:51:55.745Z,9.35
2024-02-08T05:54:23.895Z,9.19
2024-02-08T05:56:53.660Z,7.71
2024-02-08T05:59:20.934Z,7.00
2024-02-08T06:01:51.449Z,6.88
2024-02-08T06:04:25.421Z,6.64
2024-02-08T06:07:06.261Z,7.45
2024-02-08T06:09:48.473Z,8.62
2024-02-08T06:12:25.249Z,8.73
2024-02-08T06:15:00.972Z,8.35
2024-02-08T06:17:33.476Z,8.79
2024-02-08T06:20:01.467Z,9.10
2024-02-08T06:22:30.248Z,8.79
2024-02-08T06:25:09.544Z,8.42
2024-02-08T06:27:37.703Z,8.64
2024-02-08T06:30:10.681Z,8.94
2024-02-08T06:32:45.382Z,8.69
2024-02-08T06:35:21.383Z,8.78
2024-02-08T06:38:01.336Z,8.56
2024-02-08T06:40:51.658Z,8.87
2024-02-08T06:43:21.195Z,8.49
2024-02-08T06:45:47.905Z,7.32
2024-02-08T06:48:37.982Z,6.43
2024-02-08T06:51:23.298Z,6.04
2024-02-08T06:54:09.999Z,5.64
2024-02-08T06:56:55.411Z,5.58
2024-02-08T06:59:48.213Z,5.81
2024-02-08T07:02:33.520Z,6.50
2024-02-08T07:05:18.587Z,7.82
2024-02-08T07:08:03.844Z,8.34
2024-02-08T07:10:49.076Z,8.72
2024-02-08T07:13:34.227Z,8.64
2024-02-08T07:16:19.475Z,8.33
2024-02-08T07:19:07.522Z,8.74
2024-02-08T07:21:54.017Z,7.60
2024-02-08T07:24:39.442Z,6.43
2024-02-08T07:27:24.483Z,6.42
2024-02-08T07:30:09.690Z,7.90
2024-02-08T07:32:54.850Z,7.10
2024-02-08T07:35:39.792Z,6.42
2024-02-08T07:38:08.672Z,6.23
2024-02-08T07:40:38.638Z,6.02
2024-02-08T07:43:14.550Z,7.27
2024-02-08T07:45:57.029Z,8.20
2024-02-08T07:48:42.390Z,8.68
2024-02-08T07:51:08.939Z,8.20
2024-02-08T07:53:36.428Z,8.28
2024-02-08T07:56:23.278Z,8.82
2024-02-08T07:58:50.196Z,9.24
2024-02-08T08:01:20.065Z,8.87
2024-02-08T08:03:46.755Z,8.84
2024-02-08T08:06:16.370Z,9.20
2024-02-08T08:08:58.463Z,9.53
2024-02-08T08:11:32.020Z,9.25
2024-02-08T08:13:58.492Z,9.22
2024-02-08T08:16:31.398Z,8.06
2024-02-08T08:18:58.778Z,8.80
2024-02-08T08:21:28.654Z,8.62
2024-02-08T08:24:01.813Z,8.62
2024-02-08T08:26:40.762Z,8.92
2024-02-08T08:29:14.480Z,8.69
2024-02-08T08:31:53.651Z,8.84
2024-02-08T08:34:29.644Z,9.65
2024-02-08T08:36:59.587Z,9.39
2024-02-08T08:39:44.887Z,9.70
2024-02-08T08:42:17.579Z,9.91
2024-02-08T08:44:49.921Z,10.26
2024-02-08T08:47:17.466Z,10.10
2024-02-08T08:49:44.218Z,10.26
2024-02-08T08:52:11.019Z,10.29
2024-02-08T08:54:43.244Z,10.41
2024-02-08T08:57:13.698Z,10.17
2024-02-08T08:59:43.798Z,10.33
2024-02-08T09:02:10.772Z,10.46
2024-02-08T09:04:37.917Z,10.44
2024-02-08T09:07:12.542Z,10.04
2024-02-08T09:09:58.345Z,9.77
2024-02-08T09:12:37.284Z,9.46
2024-02-08T09:15:21.030Z,10.18
2024-02-08T09:17:53.834Z,10.51
2024-02-08T09:20:21.631Z,10.60
2024-02-08T09:22:50.421Z,10.86
2024-02-08T09:25:27.584Z,11.18
2024-02-08T09:28:22.120Z,11.42
2024-02-08T09:30:54.195Z,11.31
2024-02-08T09:33:36.564Z,11.50
2024-02-08T09:36:03.216Z,11.53
2024-02-08T09:38:29.835Z,11.30
2024-02-08T09:41:00.374Z,11.22
2024-02-08T09:43:30.384Z,11.19
2024-02-08T09:46:12.405Z,10.75
2024-02-08T09:48:48.917Z,10.86
2024-02-08T09:51:24.449Z,10.44
2024-02-08T09:53:55.593Z,10.42
2024-02-08T09:56:30.007Z,10.80
2024-02-08T09:59:05.561Z,10.80
2024-02-08T10:01:43.563Z,10.63
2024-02-08T10:04:17.585Z,9.61
2024-02-08T10:06:58.613Z,8.81
2024-02-08T10:09:41.457Z,8.57
2024-02-08T10:12:20.171Z,7.96
2024-02-08T10:14:52.018Z,7.61
2024-02-08T10:17:42.373Z,7.44
2024-02-08T10:20:27.914Z,7.48
2024-02-08T10:22:58.826Z,7.80
2024-02-08T10:25:43.999Z,8.20
2024-02-08T10:28:10.610Z,8.15
2024-02-08T10:30:45.461Z,8.43
2024-02-08T10:33:16.118Z,9.58
2024-02-08T10:35:42.958Z,10.23
2024-02-08T10:38:19.827Z,10.79
2024-02-08T10:40:48.218Z,11.37
2024-02-08T10:43:25.399Z,11.40
2024-02-08T10:45:56.209Z,11.41
2024-02-08T10:48:23.387Z,11.83
2024-02-08T10:50:53.081Z,11.79
2024-02-08T10:53:38.363Z,11.25
2024-02-08T10:56:15.115Z,11.58
2024-02-08T10:58:56.270Z,11.51
2024-02-08T11:01:39.156Z,11.69
2024-02-08T11:04:21.263Z,11.73
2024-02-08T11:06:59.640Z,12.07
2024-02-08T11:09:29.120Z,12.00
2024-02-08T11:12:00.316Z,12.16
2024-02-08T11:14:27.939Z,12.49
2024-02-08T11:16:54.472Z,12.24
2024-02-08T11:19:21.188Z,11.69
2024-02-08T11:21:50.653Z,12.05
2024-02-08T11:24:30.985Z,11.91
2024-02-08T11:26:59.220Z,12.02
2024-02-08T11:29:27.898Z,12.07
2024-02-08T11:31:56.678Z,12.46
2024-02-08T11:34:28.621Z,12.47
2024-02-08T11:37:00.441Z,12.45
2024-02-08T11:39:30.765Z,11.94
2024-02-08T11:41:58.259Z,11.38
2024-02-08T11:44:29.868Z,11.97
2024-02-08T11:47:00.184Z,12.19
2024-02-08T11:49:33.830Z,12.50
2024-02-08T11:52:07.938Z,12.44
2024-02-08T11:54:40.420Z,12.60
2024-02-08T11:57:11.374Z,12.24
2024-02-08T11:59:39.738Z,12.27
2024-02-08T12:02:09.755Z,12.21
2024-02-08T12:04:36.531Z,12.27
2024-02-08T12:07:08.635Z,12.20
2024-02-08T12:09:35.404Z,12.45
2024-02-08T12:12:04.110Z,12.82
2024-02-08T12:14:30.530Z,13.02
2024-02-08T12:17:00.476Z,13.02
2024-02-08T12:19:29.277Z,13.16
2024-02-08T12:21:58.972Z,13.19
2024-02-08T12:24:32.361Z,12.99
2024-02-08T12:27:06.371Z,12.90
2024-02-08T12:29:32.961Z,12.75
2024-02-08T12:31:59.324Z,12.70
2024-02-08T12:34:32.722Z,13.01
2024-02-08T12:37:06.154Z,13.26
2024-02-08T12:39:36.969Z,13.11
2024-02-08T12:42:06.155Z,13.09
2024-02-08T12:44:35.493Z,12.32
2024-02-08T12:47:07.410Z,12.65
2024-02-08T12:49:37.230Z,11.93
2024-02-08T12:52:11.093Z,11.59
2024-02-08T12:54:38.759Z,11.40
2024-02-08T12:57:09.784Z,11.70
2024-02-08T12:59:36.874Z,12.05
2024-02-08T13:02:10.077Z,11.94
2024-02-08T13:04:44.928Z,12.23
2024-02-08T13:07:15.693Z,12.55
2024-02-08T13:09:42.246Z,12.95
2024-02-08T13:12:22.295Z,13.13
2024-02-08T13:14:51.893Z,12.87
2024-02-08T13:17:21.666Z,12.87
2024-02-08T13:22:26.567Z,12.07
2024-02-08T13:24:53.637Z,11.23
2024-02-08T13:27:26.071Z,11.48
2024-02-08T13:29:53.087Z,11.48
2024-02-08T13:32:19.880Z,11.17
2024-02-08T13:34:46.393Z,11.45
2024-02-08T13:37:18.963Z,12.30
2024-02-08T13:39:48.934Z,12.19
2024-02-08T13:42:16.789Z,12.73
2024-02-08T13:44:45.592Z,13.22
2024-02-08T13:47:19.895Z,12.22
2024-02-08T13:49:50.694Z,13.07
2024-02-08T13:52:19.133Z,13.46
2024-02-08T13:54:49.206Z,13.48
2024-02-08T13:57:15.764Z,13.68
2024-02-08T13:59:51.155Z,13.48
2024-02-08T14:02:17.643Z,13.60
2024-02-08T14:04:51.142Z,13.81
2024-02-08T14:07:18.567Z,13.97
2024-02-08T14:09:46.877Z,13.83
2024-02-08T14:12:13.431Z,13.92
2024-02-08T14:14:44.689Z,13.80
2024-02-08T14:17:11.999Z,13.65
2024-02-08T14:19:38.708Z,13.88
2024-02-08T14:22:08.544Z,13.58
2024-02-08T14:24:40.470Z,13.71
2024-02-08T14:27:06.979Z,13.84
2024-02-08T14:29:36.700Z,14.01
2024-02-08T14:32:07.137Z,14.17
2024-02-08T14:34:37.324Z,13.93
2024-02-08T14:37:05.053Z,13.94
2024-02-08T14:39:35.233Z,13.85
2024-02-08T14:42:18.847Z,13.78
2024-02-08T14:44:45.925Z,14.00
2024-02-08T14:47:22.587Z,13.96
2024-02-08T14:50:17.177Z,13.94
2024-02-08T14:52:50.640Z,13.99
2024-02-08T14:55:23.975Z,14.13
2024-02-08T14:57:53.780Z,13.90
2024-02-08T15:00:33.002Z,13.99
2024-02-08T15:03:21.657Z,13.90
2024-02-08T15:05:49.255Z,13.70
2024-02-08T15:08:28.652Z,13.88
2024-02-08T15:11:04.179Z,14.02
2024-02-08T15:13:39.272Z,13.94
2024-02-08T15:16:09.083Z,14.03
2024-02-08T15:18:48.306Z,14.11
2024-02-08T15:21:35.819Z,14.10
2024-02-08T15:24:14.369Z,13.80
2024-02-08T15:26:49.035Z,13.86
2024-02-08T15:29:31.845Z,13.79
2024-02-08T15:31:58.561Z,13.66
2024-02-08T15:34:43.848Z,13.48
2024-02-08T15:37:14.939Z,13.61
2024-02-08T15:39:41.362Z,13.63
2024-02-08T15:42:11.669Z,13.62
2024-02-08T15:44:44.975Z,13.58
2024-02-08T15:47:17.433Z,13.36
2024-02-08T15:49:44.897Z,13.35
2024-02-08T15:52:23.322Z,13.35
2024-02-08T15:54:56.368Z,13.45
2024-02-08T15:57:26.645Z,13.62
2024-02-08T15:59:58.569Z,13.74
2024-02-08T16:02:26.324Z,13.66
2024-02-08T16:04:53.522Z,13.17
2024-02-08T16:07:21.470Z,11.90
2024-02-08T16:09:50.476Z,11.19
2024-02-08T16:12:37.800Z,11.77
2024-02-08T16:15:10.551Z,12.90
2024-02-08T16:17:37.849Z,13.21
2024-02-08T16:20:11.711Z,13.23
2024-02-08T16:22:57.977Z,12.78
2024-02-08T16:25:44.729Z,12.39
2024-02-08T16:28:18.139Z,12.41
2024-02-08T16:31:01.474Z,11.79
2024-02-08T16:33:46.867Z,11.58
2024-02-08T16:36:41.672Z,11.28
2024-02-08T16:39:09.008Z,11.25
2024-02-08T16:41:49.888Z,10.95
2024-02-08T16:44:17.703Z,11.22
2024-02-08T16:46:53.173Z,12.47
2024-02-08T16:49:19.779Z,13.02
2024-02-08T16:51:46.858Z,13.09
2024-02-08T16:54:30.181Z,12.44
2024-02-08T16:56:59.726Z,12.59
2024-02-08T16:59:30.486Z,12.10
2024-02-08T17:02:09.161Z,11.12
2024-02-08T17:04:49.209Z,11.34
2024-02-08T17:07:37.251Z,12.67
2024-02-08T17:10:09.635Z,13.04
2024-02-08T17:12:58.501Z,12.88
2024-02-08T17:15:28.521Z,12.86
2024-02-08T17:18:07.674Z,11.86
2024-02-08T17:20:43.662Z,11.10
2024-02-08T17:23:19.960Z,11.04
2024-02-08T17:25:57.046Z,11.79
2024-02-08T17:28:33.037Z,12.73
2024-02-08T17:31:07.918Z,11.49
2024-02-08T17:33:40.766Z,10.36
2024-02-08T17:36:14.567Z,10.23
2024-02-08T17:38:41.272Z,10.58
2024-02-08T17:41:15.112Z,10.22
2024-02-08T17:43:50.483Z,10.29
2024-02-08T17:46:21.237Z,11.38
2024-02-08T17:48:55.718Z,11.39
2024-02-08T17:51:32.533Z,11.95
2024-02-08T17:54:01.563Z,12.35
2024-02-08T17:56:31.794Z,12.72
2024-02-08T17:58:59.940Z,12.83
2024-02-08T18:01:55.051Z,12.82
2024-02-08T18:04:25.060Z,12.97
2024-02-08T18:06:54.132Z,13.05
2024-02-08T18:09:24.594Z,12.77
2024-02-08T18:11:50.969Z,12.71
2024-02-08T18:14:17.574Z,13.06
2024-02-08T18:16:45.097Z,12.99
2024-02-08T18:19:14.842Z,12.59
2024-02-08T18:21:43.090Z,11.46
2024-02-08T18:24:09.553Z,10.66
2024-02-08T18:26:36.581Z,11.73
2024-02-08T18:29:05.641Z,12.68
2024-02-08T18:31:33.605Z,12.25
2024-02-08T18:34:00.222Z,12.70
2024-02-08T18:36:26.651Z,13.02
2024-02-08T18:38:53.844Z,11.90
2024-02-08T18:41:21.480Z,11.75
2024-02-08T18:43:52.766Z,12.53
2024-02-08T18:46:20.526Z,12.64
2024-02-08T18:48:54.193Z,11.77
2024-02-08T18:51:22.980Z,11.17
2024-02-08T18:53:51.028Z,10.78
2024-02-08T18:56:19.395Z,10.75
2024-02-08T18:58:51.599Z,11.28
2024-02-08T19:01:18.038Z,10.51
2024-02-08T19:03:47.643Z,10.51
2024-02-08T19:06:18.982Z,10.25
2024-02-08T19:08:45.603Z,10.41
2024-02-08T19:11:12.309Z,10.14
2024-02-08T19:13:40.182Z,10.44
2024-02-08T19:16:17.347Z,10.08
2024-02-08T19:18:51.609Z,9.89
2024-02-08T19:21:21.284Z,9.66
2024-02-08T19:23:47.630Z,9.31
2024-02-08T19:26:22.423Z,9.61
2024-02-08T19:28:49.114Z,9.90
2024-02-08T19:31:16.161Z,11.00
2024-02-08T19:33:49.412Z,10.42
2024-02-08T19:36:25.153Z,9.92
2024-02-08T19:38:54.816Z,10.40
2024-02-08T19:41:22.122Z,11.46
2024-02-08T19:43:51.539Z,12.21
2024-02-08T19:46:21.038Z,12.37
2024-02-08T19:48:53.417Z,12.10
2024-02-08T19:51:23.438Z,11.53
2024-02-08T19:53:51.313Z,11.29
2024-02-08T19:56:19.724Z,12.46
2024-02-08T19:58:48.391Z,12.09
2024-02-08T20:01:17.620Z,11.12
2024-02-08T20:03:48.415Z,12.23
2024-02-08T20:06:18.739Z,12.65
2024-02-08T20:08:46.373Z,12.22
2024-02-08T20:11:12.893Z,11.23
2024-02-08T20:13:39.561Z,10.97
2024-02-08T20:16:07.652Z,10.39
2024-02-08T20:18:38.230Z,11.09
2024-02-08T20:21:05.150Z,10.25
2024-02-08T20:23:34.756Z,10.79
2024-02-08T20:26:01.376Z,11.42
2024-02-08T20:28:32.482Z,11.63
2024-02-08T20:30:59.785Z,10.80
2024-02-08T20:33:29.949Z,10.61
2024-02-08T20:36:01.706Z,9.93
2024-02-08T20:38:31.603Z,9.81
2024-02-08T20:40:57.974Z,10.12
2024-02-08T20:43:27.441Z,10.81
2024-02-08T20:45:55.579Z,10.48
2024-02-08T20:48:22.205Z,11.01
2024-02-08T20:50:48.825Z,10.07
2024-02-08T20:53:18.110Z,9.94
2024-02-08T20:55:45.737Z,9.71
2024-02-08T20:58:13.204Z,10.23
2024-02-08T21:00:41.943Z,9.80
2024-02-08T21:03:10.366Z,9.98
2024-02-08T21:05:40.506Z,9.96
2024-02-08T21:08:08.886Z,9.73
2024-02-08T21:10:48.144Z,9.61
2024-02-08T21:13:18.186Z,9.84
2024-02-08T21:15:44.934Z,10.23
2024-02-08T21:18:16.009Z,10.86
2024-02-08T21:20:43.263Z,10.33
2024-02-08T21:23:10.092Z,10.45
2024-02-08T21:25:40.319Z,10.89
2024-02-08T21:28:07.344Z,11.62
2024-02-08T21:30:37.240Z,12.17
2024-02-08T21:33:06.563Z,11.73
2024-02-08T21:35:33.042Z,12.30
2024-02-08T21:38:00.339Z,12.86
2024-02-08T21:40:26.756Z,12.62
2024-02-08T21:42:54.232Z,12.25
2024-02-08T21:45:21.845Z,11.57
2024-02-08T21:47:51.352Z,10.85
2024-02-08T21:50:17.729Z,10.64
2024-02-08T21:52:44.069Z,10.63
2024-02-08T21:55:10.454Z,10.76
2024-02-08T21:57:36.928Z,11.35
2024-02-08T22:00:11.959Z,10.86
2024-02-08T22:02:40.855Z,10.85
2024-02-08T22:05:14.300Z,11.19
2024-02-08T22:07:41.004Z,12.25
2024-02-08T22:10:12.747Z,12.59
2024-02-08T22:12:40.324Z,12.98
2024-02-08T22:15:06.841Z,12.55
2024-02-08T22:17:33.223Z,12.36
2024-02-08T22:19:59.968Z,12.12
2024-02-08T22:22:27.213Z,11.93
2024-02-08T22:24:55.568Z,12.74
2024-02-08T22:27:21.928Z,11.82
2024-02-08T22:29:48.548Z,12.39
2024-02-08T22:32:14.889Z,11.79
2024-02-08T22:34:42.524Z,11.54
2024-02-08T22:37:09.003Z,11.21
2024-02-08T22:39:37.079Z,11.54
2024-02-08T22:42:04.674Z,11.98
2024-02-08T22:44:31.243Z,12.11
2024-02-08T22:46:57.641Z,12.34
2024-02-08T22:49:26.437Z,12.58
2024-02-08T22:51:53.224Z,11.73
2024-02-08T22:54:21.354Z,10.85
2024-02-08T22:56:50.717Z,10.59
2024-02-08T22:59:20.523Z,10.72
2024-02-08T23:01:57.803Z,11.27
2024-02-08T23:04:24.716Z,11.97
2024-02-08T23:06:52.490Z,11.71
2024-02-08T23:09:19.111Z,11.41
2024-02-08T23:11:45.817Z,11.73
2024-02-08T23:14:12.454Z,10.97
2024-02-08T23:16:41.678Z,10.75
2024-02-08T23:19:12.716Z,10.25
2024-02-08T23:21:40.964Z,10.40
2024-02-08T23:24:11.142Z,10.53
2024-02-08T23:26:37.669Z,11.34
2024-02-08T23:29:04.707Z,11.70
2024-02-08T23:31:32.355Z,11.44
2024-02-08T23:34:01.305Z,11.16
2024-02-08T23:36:29.117Z,12.19
2024-02-08T23:39:00.476Z,12.57
2024-02-08T23:41:30.471Z,12.72
2024-02-08T23:43:57.811Z,12.82
2024-02-08T23:46:27.102Z,12.62
2024-02-08T23:48:55.855Z,12.42
2024-02-08T23:51:22.880Z,11.08
2024-02-08T23:53:49.918Z,11.65
2024-02-08T23:56:16.227Z,12.07
2024-02-08T23:58:43.393Z,11.87
